Brainerd, Minnesota
Current Conditions -  °F | °C
As of 1:53 AM on Thursday 25 Dec 2014 (Local Time) from KBRD Reporting Station
Overcast Overcast  
Wind Chill: -7°   Ceiling: 1000
Heat Index: -1°   Visibility: 10mi
Dew Point: -3°   Wind: 16mph
Humidity: 88%   Direction: 210°SSW
Pressure: 29.51"   Gusts: NA
Location:  46.35°N, 94.2°W
Report Text: KBRD 250753Z AUTO 21014KT 10SM BKN010 OVC050 M01/M03 A2951 RMK AO2 SLP008 T10111028
Loading
Personal Weather Stations






























Interactive Weather Map New forecast layout! Learn more

10-Day Weather Forecast

Advertisements
Track Severe Weather on mobile